sensor_id;sensor_type;location;lat;lon;timestamp;temperature;humidity
12309;DHT22;6217;48.150;17.142;2023-02-07T00:03:59;-1.50;70.60
12309;DHT22;6217;48.150;17.142;2023-02-07T00:08:07;-1.50;70.60
12309;DHT22;6217;48.150;17.142;2023-02-07T00:12:13;-1.50;70.80
12309;DHT22;6217;48.150;17.142;2023-02-07T00:16:19;-1.50;70.90
12309;DHT22;6217;48.150;17.142;2023-02-07T00:20:28;-1.50;70.80
12309;DHT22;6217;48.150;17.142;2023-02-07T00:24:34;-1.60;70.90
12309;DHT22;6217;48.150;17.142;2023-02-07T00:28:40;-1.60;71.00
12309;DHT22;6217;48.150;17.142;2023-02-07T00:32:46;-1.60;71.00
12309;DHT22;6217;48.150;17.142;2023-02-07T00:36:53;-1.60;70.90
12309;DHT22;6217;48.150;17.142;2023-02-07T00:41:00;-1.70;71.00
12309;DHT22;6217;48.150;17.142;2023-02-07T00:45:10;-1.80;71.20
12309;DHT22;6217;48.150;17.142;2023-02-07T00:49:16;-1.80;71.30
12309;DHT22;6217;48.150;17.142;2023-02-07T00:53:22;-1.80;71.30
12309;DHT22;6217;48.150;17.142;2023-02-07T00:57:29;-1.90;71.50
12309;DHT22;6217;48.150;17.142;2023-02-07T01:01:36;-1.90;71.70
12309;DHT22;6217;48.150;17.142;2023-02-07T01:05:42;-1.90;71.80
12309;DHT22;6217;48.150;17.142;2023-02-07T01:09:48;-1.90;71.70
12309;DHT22;6217;48.150;17.142;2023-02-07T01:13:54;-1.90;71.50
12309;DHT22;6217;48.150;17.142;2023-02-07T01:18:01;-1.80;71.70
12309;DHT22;6217;48.150;17.142;2023-02-07T01:22:07;-1.90;71.60
12309;DHT22;6217;48.150;17.142;2023-02-07T01:26:13;-2.00;71.80
12309;DHT22;6217;48.150;17.142;2023-02-07T01:30:19;-2.00;72.00
12309;DHT22;6217;48.150;17.142;2023-02-07T01:34:25;-2.00;72.10
12309;DHT22;6217;48.150;17.142;2023-02-07T01:38:31;-2.00;72.00
12309;DHT22;6217;48.150;17.142;2023-02-07T01:42:37;-2.10;72.10
12309;DHT22;6217;48.150;17.142;2023-02-07T01:46:43;-2.10;72.40
12309;DHT22;6217;48.150;17.142;2023-02-07T01:50:50;-2.10;72.30
12309;DHT22;6217;48.150;17.142;2023-02-07T10:54:10;0.00;69.30
12309;DHT22;6217;48.150;17.142;2023-02-07T10:58:22;0.20;70.70
12309;DHT22;6217;48.150;17.142;2023-02-07T11:06:41;1.20;70.40
12309;DHT22;6217;48.150;17.142;2023-02-07T11:10:50;1.50;69.30
12309;DHT22;6217;48.150;17.142;2023-02-07T11:15:01;1.60;69.00
12309;DHT22;6217;48.150;17.142;2023-02-07T11:19:15;1.70;68.10
12309;DHT22;6217;48.150;17.142;2023-02-07T11:23:23;1.80;68.70
12309;DHT22;6217;48.150;17.142;2023-02-07T11:27:36;1.80;67.90
12309;DHT22;6217;48.150;17.142;2023-02-07T11:31:45;1.90;67.80
12309;DHT22;6217;48.150;17.142;2023-02-07T11:36:32;2.10;67.60
12309;DHT22;6217;48.150;17.142;2023-02-07T11:40:46;2.20;67.20
12309;DHT22;6217;48.150;17.142;2023-02-07T11:44:54;2.30;67.00
12309;DHT22;6217;48.150;17.142;2023-02-07T11:49:00;2.30;66.40
12309;DHT22;6217;48.150;17.142;2023-02-07T11:53:32;2.40;66.80
12309;DHT22;6217;48.150;17.142;2023-02-07T11:57:44;2.40;66.40
12309;DHT22;6217;48.150;17.142;2023-02-07T12:01:56;2.60;66.30
12309;DHT22;6217;48.150;17.142;2023-02-07T12:06:03;2.70;66.00
12309;DHT22;6217;48.150;17.142;2023-02-07T12:10:14;2.80;65.80
12309;DHT22;6217;48.150;17.142;2023-02-07T12:14:49;2.90;65.50
12309;DHT22;6217;48.150;17.142;2023-02-07T12:27:37;2.90;64.70
12309;DHT22;6217;48.150;17.142;2023-02-07T12:36:34;3.10;64.40
12309;DHT22;6217;48.150;17.142;2023-02-07T12:44:56;3.30;63.30
12309;DHT22;6217;48.150;17.142;2023-02-07T13:03:50;3.30;62.00
12309;DHT22;6217;48.150;17.142;2023-02-07T13:08:31;3.40;62.00
12309;DHT22;6217;48.150;17.142;2023-02-07T13:13:22;3.40;62.30
12309;DHT22;6217;48.150;17.142;2023-02-07T13:22:48;3.40;61.90
12309;DHT22;6217;48.150;17.142;2023-02-07T13:26:47;3.50;61.90
12309;DHT22;6217;48.150;17.142;2023-02-07T13:30:56;3.50;62.00
12309;DHT22;6217;48.150;17.142;2023-02-07T13:35:14;3.60;61.70
12309;DHT22;6217;48.150;17.142;2023-02-07T13:44:10;3.50;61.20
12309;DHT22;6217;48.150;17.142;2023-02-07T13:52:59;3.60;60.90
12309;DHT22;6217;48.150;17.142;2023-02-07T13:57:42;3.60;61.00
12309;DHT22;6217;48.150;17.142;2023-02-07T14:02:17;3.60;61.00
12309;DHT22;6217;48.150;17.142;2023-02-07T14:06:26;3.70;61.00
12309;DHT22;6217;48.150;17.142;2023-02-07T14:10:36;3.70;61.00
12309;DHT22;6217;48.150;17.142;2023-02-07T14:14:45;3.80;60.70
12309;DHT22;6217;48.150;17.142;2023-02-07T14:18:51;3.70;60.40
12309;DHT22;6217;48.150;17.142;2023-02-07T14:27:04;3.70;60.30
12309;DHT22;6217;48.150;17.142;2023-02-07T14:31:22;3.60;60.60
12309;DHT22;6217;48.150;17.142;2023-02-07T14:35:31;3.60;60.80
12309;DHT22;6217;48.150;17.142;2023-02-07T14:39:38;3.50;60.50
12309;DHT22;6217;48.150;17.142;2023-02-07T14:43:52;3.50;60.90
12309;DHT22;6217;48.150;17.142;2023-02-07T14:47:59;3.40;60.60
12309;DHT22;6217;48.150;17.142;2023-02-07T14:52:09;3.40;61.00
12309;DHT22;6217;48.150;17.142;2023-02-07T14:56:36;3.40;60.80
12309;DHT22;6217;48.150;17.142;2023-02-07T15:00:54;3.40;61.20
12309;DHT22;6217;48.150;17.142;2023-02-07T15:09:26;3.30;61.30
12309;DHT22;6217;48.150;17.142;2023-02-07T15:13:38;3.30;61.30
12309;DHT22;6217;48.150;17.142;2023-02-07T15:17:46;3.20;61.30
12309;DHT22;6217;48.150;17.142;2023-02-07T15:21:54;3.10;61.50
12309;DHT22;6217;48.150;17.142;2023-02-07T15:26:04;2.90;61.50
12309;DHT22;6217;48.150;17.142;2023-02-07T15:30:17;2.80;61.70
12309;DHT22;6217;48.150;17.142;2023-02-07T15:34:31;2.70;61.80
12309;DHT22;6217;48.150;17.142;2023-02-07T15:38:39;2.70;61.90
12309;DHT22;6217;48.150;17.142;2023-02-07T15:42:53;2.60;62.10
12309;DHT22;6217;48.150;17.142;2023-02-07T15:47:06;2.50;62.10
12309;DHT22;6217;48.150;17.142;2023-02-07T15:51:12;2.40;62.10
12309;DHT22;6217;48.150;17.142;2023-02-07T15:55:33;2.30;62.50
12309;DHT22;6217;48.150;17.142;2023-02-07T15:59:42;2.30;62.60
12309;DHT22;6217;48.150;17.142;2023-02-07T16:03:48;2.30;62.60
12309;DHT22;6217;48.150;17.142;2023-02-07T16:07:54;2.20;62.70
12309;DHT22;6217;48.150;17.142;2023-02-07T16:12:01;2.10;62.80
12309;DHT22;6217;48.150;17.142;2023-02-07T16:16:08;2.00;63.00
12309;DHT22;6217;48.150;17.142;2023-02-07T16:20:17;2.00;63.10
12309;DHT22;6217;48.150;17.142;2023-02-07T16:24:23;1.90;63.20
12309;DHT22;6217;48.150;17.142;2023-02-07T16:28:32;1.80;63.40
12309;DHT22;6217;48.150;17.142;2023-02-07T16:32:38;1.80;63.70
12309;DHT22;6217;48.150;17.142;2023-02-07T16:36:48;1.70;63.80
12309;DHT22;6217;48.150;17.142;2023-02-07T16:40:55;1.70;63.90
12309;DHT22;6217;48.150;17.142;2023-02-07T16:45:01;1.70;64.00
12309;DHT22;6217;48.150;17.142;2023-02-07T16:49:14;1.60;64.00
12309;DHT22;6217;48.150;17.142;2023-02-07T16:53:21;1.60;64.10
12309;DHT22;6217;48.150;17.142;2023-02-07T16:57:27;1.50;64.30
12309;DHT22;6217;48.150;17.142;2023-02-07T17:01:33;1.50;64.60
12309;DHT22;6217;48.150;17.142;2023-02-07T17:05:39;1.50;64.70
12309;DHT22;6217;48.150;17.142;2023-02-07T17:09:45;1.40;64.90
12309;DHT22;6217;48.150;17.142;2023-02-07T17:13:55;1.40;65.00
12309;DHT22;6217;48.150;17.142;2023-02-07T17:18:02;1.50;65.00
12309;DHT22;6217;48.150;17.142;2023-02-07T17:22:08;1.70;65.00
12309;DHT22;6217;48.150;17.142;2023-02-07T17:30:31;1.80;65.10
12309;DHT22;6217;48.150;17.142;2023-02-07T17:34:39;1.90;65.10
12309;DHT22;6217;48.150;17.142;2023-02-07T17:38:45;2.00;65.10
12309;DHT22;6217;48.150;17.142;2023-02-07T17:42:51;2.10;65.00
12309;DHT22;6217;48.150;17.142;2023-02-07T17:46:57;2.10;65.00
12309;DHT22;6217;48.150;17.142;2023-02-07T17:51:03;2.00;65.00
12309;DHT22;6217;48.150;17.142;2023-02-07T17:55:09;2.00;65.40
12309;DHT22;6217;48.150;17.142;2023-02-07T17:59:22;2.00;65.40
12309;DHT22;6217;48.150;17.142;2023-02-07T18:03:28;2.00;65.60
12309;DHT22;6217;48.150;17.142;2023-02-07T18:07:34;2.00;65.60
12309;DHT22;6217;48.150;17.142;2023-02-07T18:11:40;2.00;65.60
12309;DHT22;6217;48.150;17.142;2023-02-07T18:15:46;2.00;65.70
12309;DHT22;6217;48.150;17.142;2023-02-07T18:19:52;2.00;65.60
12309;DHT22;6217;48.150;17.142;2023-02-07T18:23:58;1.90;65.70
12309;DHT22;6217;48.150;17.142;2023-02-07T18:28:04;1.90;65.90
12309;DHT22;6217;48.150;17.142;2023-02-07T18:32:11;1.90;66.20
12309;DHT22;6217;48.150;17.142;2023-02-07T18:36:17;1.80;66.30
12309;DHT22;6217;48.150;17.142;2023-02-07T18:40:24;1.80;66.40
12309;DHT22;6217;48.150;17.142;2023-02-07T18:44:30;1.70;66.50
12309;DHT22;6217;48.150;17.142;2023-02-07T18:48:36;1.70;66.40
12309;DHT22;6217;48.150;17.142;2023-02-07T18:52:42;1.60;66.40
12309;DHT22;6217;48.150;17.142;2023-02-07T18:56:48;1.50;66.60
12309;DHT22;6217;48.150;17.142;2023-02-07T19:01:04;1.40;66.70
12309;DHT22;6217;48.150;17.142;2023-02-07T19:05:11;1.40;67.40
12309;DHT22;6217;48.150;17.142;2023-02-07T19:09:18;1.20;66.80
12309;DHT22;6217;48.150;17.142;2023-02-07T19:13:25;1.10;67.70
12309;DHT22;6217;48.150;17.142;2023-02-07T19:17:32;1.10;67.20
12309;DHT22;6217;48.150;17.142;2023-02-07T19:21:39;1.00;67.20
12309;DHT22;6217;48.150;17.142;2023-02-07T19:25:46;0.90;67.50
12309;DHT22;6217;48.150;17.142;2023-02-07T19:29:52;0.80;67.80
12309;DHT22;6217;48.150;17.142;2023-02-07T19:33:58;0.90;68.40
12309;DHT22;6217;48.150;17.142;2023-02-07T19:38:07;0.80;67.70
12309;DHT22;6217;48.150;17.142;2023-02-07T19:42:13;0.80;67.80
12309;DHT22;6217;48.150;17.142;2023-02-07T19:46:19;0.70;67.80
12309;DHT22;6217;48.150;17.142;2023-02-07T19:50:26;0.70;68.00
12309;DHT22;6217;48.150;17.142;2023-02-07T19:54:32;0.70;68.10
12309;DHT22;6217;48.150;17.142;2023-02-07T19:58:40;0.70;68.20
12309;DHT22;6217;48.150;17.142;2023-02-07T20:02:47;0.60;68.20
12309;DHT22;6217;48.150;17.142;2023-02-07T20:06:53;0.60;68.60
12309;DHT22;6217;48.150;17.142;2023-02-07T20:11:03;0.50;68.70
12309;DHT22;6217;48.150;17.142;2023-02-07T20:15:12;0.50;68.50
12309;DHT22;6217;48.150;17.142;2023-02-07T20:19:18;0.50;68.50
12309;DHT22;6217;48.150;17.142;2023-02-07T20:23:24;0.40;68.50
12309;DHT22;6217;48.150;17.142;2023-02-07T20:27:30;0.40;68.70
12309;DHT22;6217;48.150;17.142;2023-02-07T20:31:37;0.40;68.80
12309;DHT22;6217;48.150;17.142;2023-02-07T20:35:45;0.30;68.90
12309;DHT22;6217;48.150;17.142;2023-02-07T20:39:51;0.30;69.10
12309;DHT22;6217;48.150;17.142;2023-02-07T20:44:02;0.30;69.00
12309;DHT22;6217;48.150;17.142;2023-02-07T20:48:13;0.30;69.30
12309;DHT22;6217;48.150;17.142;2023-02-07T20:52:20;0.20;69.40
12309;DHT22;6217;48.150;17.142;2023-02-07T20:56:27;0.30;69.50
12309;DHT22;6217;48.150;17.142;2023-02-07T21:00:33;0.20;69.50
12309;DHT22;6217;48.150;17.142;2023-02-07T21:04:39;0.20;69.50
12309;DHT22;6217;48.150;17.142;2023-02-07T21:08:45;0.10;69.70
12309;DHT22;6217;48.150;17.142;2023-02-07T21:12:51;0.10;69.90
12309;DHT22;6217;48.150;17.142;2023-02-07T21:17:00;0.10;69.90
12309;DHT22;6217;48.150;17.142;2023-02-07T21:21:11;0.10;70.10
12309;DHT22;6217;48.150;17.142;2023-02-07T21:25:19;0.00;70.30
12309;DHT22;6217;48.150;17.142;2023-02-07T21:29:25;0.00;70.70
12309;DHT22;6217;48.150;17.142;2023-02-07T21:33:32;0.00;70.40
12309;DHT22;6217;48.150;17.142;2023-02-07T21:37:38;0.00;70.30
12309;DHT22;6217;48.150;17.142;2023-02-07T21:41:56;0.00;70.40
12309;DHT22;6217;48.150;17.142;2023-02-07T21:50:25;0.00;70.60
12309;DHT22;6217;48.150;17.142;2023-02-07T21:54:31;0.00;70.70
12309;DHT22;6217;48.150;17.142;2023-02-07T21:58:37;0.10;70.50
12309;DHT22;6217;48.150;17.142;2023-02-07T22:02:43;0.20;70.30
12309;DHT22;6217;48.150;17.142;2023-02-07T22:06:49;0.30;70.20
12309;DHT22;6217;48.150;17.142;2023-02-07T22:10:55;0.40;70.20
12309;DHT22;6217;48.150;17.142;2023-02-07T22:15:01;0.50;70.00
12309;DHT22;6217;48.150;17.142;2023-02-07T22:19:10;0.50;70.60
12309;DHT22;6217;48.150;17.142;2023-02-07T22:23:16;0.40;70.00
12309;DHT22;6217;48.150;17.142;2023-02-07T22:27:23;0.50;69.90
12309;DHT22;6217;48.150;17.142;2023-02-07T22:31:31;0.50;69.80
12309;DHT22;6217;48.150;17.142;2023-02-07T22:35:40;0.50;69.90
12309;DHT22;6217;48.150;17.142;2023-02-07T22:39:48;0.50;69.80
12309;DHT22;6217;48.150;17.142;2023-02-07T22:43:54;0.40;69.80
12309;DHT22;6217;48.150;17.142;2023-02-07T22:48:00;0.40;69.90
12309;DHT22;6217;48.150;17.142;2023-02-07T22:52:06;0.30;69.90
12309;DHT22;6217;48.150;17.142;2023-02-07T22:56:13;0.20;70.60
12309;DHT22;6217;48.150;17.142;2023-02-07T23:00:19;0.10;70.00
12309;DHT22;6217;48.150;17.142;2023-02-07T23:04:38;0.00;70.10
12309;DHT22;6217;48.150;17.142;2023-02-07T23:08:45;0.00;70.30
12309;DHT22;6217;48.150;17.142;2023-02-07T23:12:51;-0.10;70.30
12309;DHT22;6217;48.150;17.142;2023-02-07T23:16:57;-0.10;70.50
12309;DHT22;6217;48.150;17.142;2023-02-07T23:21:09;-0.10;70.40
12309;DHT22;6217;48.150;17.142;2023-02-07T23:25:16;-0.20;70.40
12309;DHT22;6217;48.150;17.142;2023-02-07T23:29:22;-0.20;70.30
12309;DHT22;6217;48.150;17.142;2023-02-07T23:33:28;-0.30;70.40
12309;DHT22;6217;48.150;17.142;2023-02-07T23:37:34;-0.30;70.30
12309;DHT22;6217;48.150;17.142;2023-02-07T23:41:40;-0.40;70.40
12309;DHT22;6217;48.150;17.142;2023-02-07T23:45:46;-0.40;70.60
12309;DHT22;6217;48.150;17.142;2023-02-07T23:49:55;-0.40;70.60
12309;DHT22;6217;48.150;17.142;2023-02-07T23:54:02;-0.40;70.60
12309;DHT22;6217;48.150;17.142;2023-02-07T23:58:08;-0.40;70.70
